Time;durP1;ratioP1;P1;durP2;ratioP2;P2;SDS_P1;SDS_P2;PMS_P1;PMS_P2;Temp;Humidity;BMP_temperature;BMP_pressure;BME280_temperature;BME280_humidity;BME280_pressure;Samples;Min_cycle;Max_cycle;Signal;HPM_P1;HPM_P2
2022/06/19 00:00:42;;;;;;;14.73;4.45;;;23.60;56.70;;;;;;5028112;28;20071;-75
2022/06/19 00:03:15;;;;;;;16.65;4.38;;;23.60;56.60;;;;;;5033786;28;20035;-75
2022/06/19 00:05:41;;;;;;;18.08;5.10;;;23.50;57.20;;;;;;5030304;28;20029;-75
2022/06/19 00:08:07;;;;;;;21.08;5.47;;;23.40;58.40;;;;;;5032608;28;20475;-75
2022/06/19 00:10:32;;;;;;;15.77;4.57;;;23.30;59.20;;;;;;5031024;28;20223;-75
2022/06/19 00:12:58;;;;;;;15.18;4.90;;;23.20;60.80;;;;;;5032660;28;20045;-75
2022/06/19 00:15:24;;;;;;;13.98;5.05;;;23.10;61.30;;;;;;5029707;28;20025;-76
2022/06/19 00:17:49;;;;;;;17.42;4.80;;;23.10;61.50;;;;;;5027349;28;20048;-75
2022/06/19 00:20:15;;;;;;;15.27;4.93;;;23.10;62.10;;;;;;5033474;28;20494;-75
2022/06/19 00:22:41;;;;;;;14.73;5.38;;;23.00;61.70;;;;;;5030560;28;20532;-75
2022/06/19 00:25:08;;;;;;;15.90;5.00;;;23.00;62.20;;;;;;5033411;28;20033;-75
2022/06/19 00:27:40;;;;;;;15.82;5.30;;;22.90;62.70;;;;;;5029350;28;20053;-75
2022/06/19 00:30:10;;;;;;;12.85;4.60;;;22.90;62.50;;;;;;5028822;28;20572;-75
2022/06/19 00:32:36;;;;;;;14.50;4.17;;;22.90;62.60;;;;;;5028692;28;20088;-75
2022/06/19 00:35:02;;;;;;;13.82;4.60;;;22.90;62.40;;;;;;5033797;28;21381;-75
2022/06/19 00:37:29;;;;;;;13.90;4.55;;;22.80;62.60;;;;;;5029560;28;20061;-75
2022/06/19 00:39:55;;;;;;;13.23;4.78;;;22.80;62.80;;;;;;5027537;28;20020;-75
2022/06/19 00:42:24;;;;;;;13.43;4.78;;;22.80;62.90;;;;;;5025440;28;20503;-75
2022/06/19 00:44:51;;;;;;;11.95;4.30;;;22.70;63.10;;;;;;5026636;28;20041;-75
2022/06/19 00:47:26;;;;;;;12.38;4.13;;;22.70;63.30;;;;;;5031985;28;20043;-75
2022/06/19 00:49:59;;;;;;;11.38;4.18;;;22.60;63.20;;;;;;5032547;28;20025;-75
2022/06/19 00:52:35;;;;;;;14.15;4.15;;;22.60;63.00;;;;;;5026399;28;20032;-75
2022/06/19 00:55:11;;;;;;;13.73;4.07;;;22.50;63.10;;;;;;5031986;28;20590;-75
2022/06/19 00:57:42;;;;;;;12.50;4.32;;;22.50;62.80;;;;;;5032069;28;20024;-75
2022/06/19 01:00:23;;;;;;;11.77;4.30;;;22.40;63.00;;;;;;5030047;28;20069;-75
2022/06/19 01:02:51;;;;;;;12.18;4.25;;;22.40;63.40;;;;;;5031103;28;20121;-75
2022/06/19 01:05:17;;;;;;;13.02;4.20;;;22.30;63.90;;;;;;5029784;28;20030;-75
2022/06/19 01:07:45;;;;;;;10.40;4.00;;;22.20;64.20;;;;;;5026800;28;20035;-75
2022/06/19 01:10:13;;;;;;;9.80;3.85;;;22.10;64.30;;;;;;5032067;28;20026;-75
2022/06/19 01:12:45;;;;;;;15.05;4.43;;;22.10;64.20;;;;;;5031190;28;20033;-75
2022/06/19 01:15:15;;;;;;;12.55;3.80;;;22.10;64.50;;;;;;5031589;28;20811;-75
2022/06/19 01:17:41;;;;;;;12.60;4.25;;;22.10;64.50;;;;;;5031846;28;20056;-75
2022/06/19 01:20:11;;;;;;;15.70;4.30;;;22.10;64.50;;;;;;5032388;28;20492;-75
2022/06/19 01:22:53;;;;;;;14.20;3.90;;;22.10;64.30;;;;;;5030228;28;20052;-75
2022/06/19 01:25:22;;;;;;;15.65;4.32;;;22.10;64.40;;;;;;5030631;28;20037;-74
2022/06/19 01:30:46;;;;;;;11.57;3.70;;;22.10;64.30;;;;;;5029136;28;20143;-75
2022/06/19 01:33:16;;;;;;;14.38;3.67;;;22.20;64.10;;;;;;5027597;28;20030;-75
2022/06/19 01:35:44;;;;;;;10.18;3.72;;;22.20;63.90;;;;;;5029908;28;20029;-75
2022/06/19 01:38:14;;;;;;;12.88;4.00;;;22.20;63.80;;;;;;5031322;28;20032;-75
2022/06/19 01:40:43;;;;;;;13.40;3.80;;;22.10;63.90;;;;;;5027847;28;20037;-75
2022/06/19 01:43:10;;;;;;;11.02;3.58;;;22.10;64.20;;;;;;5027370;28;20103;-75
2022/06/19 01:45:40;;;;;;;12.63;3.80;;;22.00;64.30;;;;;;5029837;28;20765;-74
2022/06/19 01:48:06;;;;;;;;;;;21.80;64.80;;;;;;5027240;28;20038;-74
2022/06/19 01:50:32;;;;;;;11.75;4.05;;;21.80;65.00;;;;;;5026504;28;19963;-74
2022/06/19 01:53:08;;;;;;;13.30;3.85;;;21.70;65.60;;;;;;5028552;28;20032;-74
2022/06/19 01:55:34;;;;;;;14.45;4.00;;;21.50;66.50;;;;;;5028553;28;20039;-74
2022/06/19 01:58:01;;;;;;;12.82;3.75;;;21.40;66.60;;;;;;5027656;28;20030;-75
2022/06/19 02:00:31;;;;;;;12.88;3.85;;;21.40;67.00;;;;;;5029788;28;20022;-74
2022/06/19 02:03:16;;;;;;;15.75;3.92;;;21.40;66.80;;;;;;5026422;28;20472;-75
2022/06/19 02:05:42;;;;;;;11.07;3.75;;;21.40;67.10;;;;;;5031883;28;20095;-75
2022/06/19 02:08:10;;;;;;;16.33;4.40;;;21.40;66.60;;;;;;5036240;28;20139;-75
2022/06/19 02:10:40;;;;;;;14.18;4.55;;;21.50;66.40;;;;;;5036500;28;20435;-75
2022/06/19 02:13:08;;;;;;;14.50;4.40;;;21.50;66.20;;;;;;5035054;28;20036;-74
2022/06/19 02:15:36;;;;;;;15.73;4.72;;;21.50;66.10;;;;;;5033291;28;20565;-75
2022/06/19 02:18:05;;;;;;;11.02;4.40;;;21.40;66.10;;;;;;5030684;28;20022;-74
2022/06/19 02:20:30;;;;;;;14.70;4.53;;;21.50;66.30;;;;;;5029091;28;20060;-75
2022/06/19 02:22:57;;;;;;;14.68;4.22;;;21.40;66.30;;;;;;5034646;28;20945;-75
2022/06/19 02:25:23;;;;;;;10.30;4.00;;;21.50;66.30;;;;;;5034431;28;20076;-75
2022/06/19 02:27:51;;;;;;;18.80;4.95;;;21.50;66.50;;;;;;5033393;28;20025;-75
2022/06/19 02:30:17;;;;;;;17.25;4.50;;;21.50;66.10;;;;;;5032705;28;20030;-75
2022/06/19 02:32:46;;;;;;;13.90;4.40;;;21.50;66.30;;;;;;5033269;28;26725;-75
2022/06/19 02:35:17;;;;;;;20.03;4.63;;;21.50;65.90;;;;;;5033101;28;20022;-75
2022/06/19 02:37:45;;;;;;;;;;;21.50;65.70;;;;;;5034029;28;20037;-75
2022/06/19 02:40:44;;;;;;;17.38;4.65;;;21.50;65.50;;;;;;5034646;28;20007;-75
2022/06/19 02:43:17;;;;;;;16.02;4.30;;;21.50;65.60;;;;;;5034360;28;20085;-74
2022/06/19 02:45:43;;;;;;;15.93;5.10;;;21.60;65.70;;;;;;5030417;28;20033;-75
2022/06/19 02:48:20;;;;;;;17.10;5.30;;;21.60;65.80;;;;;;5031916;28;20033;-74
2022/06/19 02:50:47;;;;;;;18.08;5.32;;;21.60;66.90;;;;;;5033160;28;24509;-75
2022/06/19 02:53:13;;;;;;;18.45;5.28;;;21.50;67.10;;;;;;5032683;28;20496;-75
2022/06/19 02:55:40;;;;;;;17.83;5.32;;;21.40;67.30;;;;;;5032947;28;20031;-74
2022/06/19 02:58:06;;;;;;;18.92;5.40;;;21.40;67.90;;;;;;5030920;28;20087;-75
2022/06/19 03:00:32;;;;;;;15.68;4.90;;;21.30;68.00;;;;;;5032595;28;20037;-75
2022/06/19 03:03:08;;;;;;;20.65;5.65;;;21.20;68.60;;;;;;5034319;28;20166;-75
2022/06/19 03:05:34;;;;;;;15.57;4.78;;;21.20;69.10;;;;;;5033817;28;20025;-74
2022/06/19 03:07:59;;;;;;;21.75;5.53;;;21.20;69.30;;;;;;5034928;28;20032;-75
2022/06/19 03:10:25;;;;;;;14.80;4.68;;;21.20;69.50;;;;;;5029956;28;20056;-74
2022/06/19 03:12:51;;;;;;;21.08;5.32;;;21.30;69.40;;;;;;5032266;28;20057;-75
2022/06/19 03:15:17;;;;;;;19.63;4.80;;;21.30;69.10;;;;;;5033546;28;20070;-74
2022/06/19 03:17:43;;;;;;;18.33;5.10;;;21.30;68.90;;;;;;5034591;28;20025;-75
2022/06/19 03:20:14;;;;;;;15.98;4.80;;;21.40;69.00;;;;;;5035106;28;20044;-75
2022/06/19 03:22:39;;;;;;;17.50;5.78;;;21.40;69.20;;;;;;5025872;28;20140;-75
2022/06/19 03:25:05;;;;;;;15.98;4.88;;;21.40;69.60;;;;;;5030816;28;20444;-75
2022/06/19 03:27:31;;;;;;;14.98;4.90;;;21.40;70.20;;;;;;5030920;28;20046;-74
2022/06/19 03:29:57;;;;;;;17.50;5.07;;;21.30;70.40;;;;;;5030806;28;20025;-75
2022/06/19 03:32:22;;;;;;;17.23;4.95;;;21.30;70.60;;;;;;5034541;28;21675;-75
2022/06/19 03:34:48;;;;;;;16.63;5.43;;;21.30;70.40;;;;;;5027075;28;20404;-75
2022/06/19 03:37:14;;;;;;;16.75;5.63;;;21.20;70.90;;;;;;5030469;28;20516;-74
2022/06/19 03:39:40;;;;;;;17.48;5.53;;;21.10;71.10;;;;;;5029709;28;21001;-74
2022/06/19 03:42:07;;;;;;;14.25;5.13;;;21.10;71.30;;;;;;5032964;28;20048;-74
2022/06/19 03:44:33;;;;;;;15.43;5.47;;;21.00;71.30;;;;;;5031649;28;20400;-75
2022/06/19 03:46:58;;;;;;;14.32;4.93;;;20.90;71.80;;;;;;5032081;28;20021;-74
2022/06/19 03:49:26;;;;;;;13.00;5.30;;;20.80;71.90;;;;;;5030082;28;20044;-75
2022/06/19 03:51:52;;;;;;;17.10;5.03;;;20.50;72.30;;;;;;5030441;28;20029;-74
2022/06/19 03:54:18;;;;;;;17.25;4.70;;;20.40;72.90;;;;;;5032347;28;20074;-74
2022/06/19 03:56:44;;;;;;;15.65;5.28;;;20.20;73.70;;;;;;5030867;28;20722;-74
2022/06/19 03:59:12;;;;;;;13.32;4.82;;;20.10;74.20;;;;;;5035381;28;20025;-74
2022/06/19 04:01:42;;;;;;;16.92;5.55;;;19.90;75.00;;;;;;5047206;28;20128;-74
2022/06/19 04:04:09;;;;;;;17.30;5.63;;;19.90;75.70;;;;;;5033087;28;20053;-73
2022/06/19 04:06:38;;;;;;;15.43;5.00;;;19.80;75.80;;;;;;5031961;28;20039;-74
2022/06/19 04:09:05;;;;;;;18.67;4.97;;;19.70;76.30;;;;;;5030699;28;20458;-74
2022/06/19 04:11:31;;;;;;;15.85;5.13;;;19.80;76.50;;;;;;5030171;28;20037;-74
2022/06/19 04:13:57;;;;;;;15.05;5.10;;;19.70;76.60;;;;;;5033559;28;20108;-74
2022/06/19 04:16:31;;;;;;;18.85;5.55;;;19.70;76.60;;;;;;5030795;28;20102;-73
2022/06/19 04:18:59;;;;;;;13.88;5.10;;;19.70;76.60;;;;;;5028056;28;20032;-74
2022/06/19 04:21:27;;;;;;;16.27;5.50;;;19.70;76.70;;;;;;5025643;28;20041;-74
2022/06/19 04:23:55;;;;;;;16.95;5.00;;;19.60;77.10;;;;;;5034642;28;20017;-73
2022/06/19 04:26:23;;;;;;;11.90;4.75;;;19.50;77.30;;;;;;5025032;28;20396;-73
2022/06/19 04:28:48;;;;;;;14.40;4.82;;;19.50;77.30;;;;;;5032282;28;20022;-73
2022/06/19 04:31:14;;;;;;;17.55;5.07;;;19.40;77.70;;;;;;5031607;28;20025;-73
2022/06/19 04:33:40;;;;;;;11.25;4.60;;;19.40;77.80;;;;;;5032712;28;20021;-73
2022/06/19 04:36:14;;;;;;;13.88;4.75;;;19.40;77.60;;;;;;5027970;28;20048;-74
2022/06/19 04:38:43;;;;;;;14.57;4.95;;;19.30;78.60;;;;;;5030465;28;20423;-73
2022/06/19 04:41:18;;;;;;;20.13;5.13;;;19.40;78.00;;;;;;5030074;28;20056;-73
2022/06/19 04:43:44;;;;;;;12.25;4.32;;;19.30;77.50;;;;;;5032171;28;20026;-74
2022/06/19 04:46:10;;;;;;;14.00;4.35;;;19.40;77.60;;;;;;5028654;28;20088;-75
2022/06/19 04:48:37;;;;;;;16.02;4.10;;;19.40;77.40;;;;;;5032553;28;20052;-76
2022/06/19 04:51:02;;;;;;;16.85;4.35;;;19.40;77.10;;;;;;5030957;28;20033;-73
2022/06/19 04:53:28;;;;;;;12.40;4.00;;;19.40;77.10;;;;;;5032082;28;20087;-75
2022/06/19 04:55:54;;;;;;;16.85;4.50;;;19.40;76.70;;;;;;5032673;28;20032;-74
2022/06/19 04:58:23;;;;;;;13.10;4.13;;;19.40;76.90;;;;;;5029878;28;20426;-73
2022/06/19 05:00:51;;;;;;;13.65;4.32;;;19.30;77.10;;;;;;5030286;28;20033;-73
2022/06/19 05:03:18;;;;;;;15.10;3.90;;;19.30;77.30;;;;;;5030304;28;20022;-73
2022/06/19 05:05:45;;;;;;;13.63;4.30;;;19.20;77.50;;;;;;5028242;28;20035;-75
2022/06/19 05:08:10;;;;;;;15.98;4.10;;;19.20;77.50;;;;;;5030844;28;20028;-75
2022/06/19 05:10:37;;;;;;;13.00;4.18;;;19.30;77.30;;;;;;5030863;28;20020;-75
2022/06/19 05:13:05;;;;;;;11.75;4.30;;;19.30;77.10;;;;;;5028765;28;20811;-75
2022/06/19 05:15:32;;;;;;;15.65;4.25;;;19.40;77.00;;;;;;5024731;28;20034;-76
2022/06/19 05:17:57;;;;;;;15.77;4.03;;;19.40;76.80;;;;;;5019501;28;20029;-76
2022/06/19 05:20:23;;;;;;;15.55;4.15;;;19.40;76.70;;;;;;5029520;28;20542;-74
2022/06/19 05:22:49;;;;;;;11.82;4.07;;;19.50;76.50;;;;;;5028884;28;20045;-76
2022/06/19 05:25:15;;;;;;;17.02;4.00;;;19.60;76.10;;;;;;5028392;28;20022;-80
2022/06/19 05:27:41;;;;;;;12.63;4.18;;;19.70;75.90;;;;;;5026543;28;20436;-77
2022/06/19 05:30:10;;;;;;;16.10;4.50;;;19.80;75.70;;;;;;5027326;28;20499;-77
2022/06/19 05:32:36;;;;;;;13.85;3.75;;;19.80;75.30;;;;;;5028001;28;20095;-77
2022/06/19 05:35:02;;;;;;;13.60;4.03;;;19.90;74.80;;;;;;5028692;28;20057;-77
2022/06/19 05:37:27;;;;;;;17.92;4.43;;;20.10;74.60;;;;;;5024839;28;20114;-77
2022/06/19 05:39:53;;;;;;;18.45;4.43;;;20.10;74.50;;;;;;5027460;28;20021;-78
2022/06/19 05:42:20;;;;;;;17.60;4.15;;;20.20;74.20;;;;;;5025053;28;20517;-76
2022/06/19 05:44:45;;;;;;;13.30;3.83;;;20.30;73.70;;;;;;5027593;28;20022;-81
2022/06/19 05:47:11;;;;;;;14.32;4.03;;;20.40;73.50;;;;;;5030093;28;20467;-75
2022/06/19 05:49:37;;;;;;;16.42;3.97;;;20.50;73.20;;;;;;5026970;28;20087;-75
2022/06/19 05:52:15;;;;;;;10.82;3.38;;;20.60;73.00;;;;;;5023624;28;20453;-76
2022/06/19 05:54:41;;;;;;;17.88;4.40;;;20.60;72.60;;;;;;5021887;28;20393;-75
2022/06/19 05:57:07;;;;;;;16.70;4.28;;;20.70;72.10;;;;;;5026674;28;20036;-77
2022/06/19 05:59:33;;;;;;;12.48;3.83;;;20.70;71.70;;;;;;5042588;28;20033;-76
2022/06/19 06:01:59;;;;;;;19.45;4.88;;;20.80;71.70;;;;;;5027462;28;20044;-77
2022/06/19 06:04:24;;;;;;;16.67;3.97;;;20.90;70.40;;;;;;5025590;28;20440;-77
2022/06/19 06:06:50;;;;;;;16.33;4.53;;;20.90;70.00;;;;;;5025652;28;20029;-74
2022/06/19 06:09:15;;;;;;;14.15;4.18;;;20.80;70.10;;;;;;5019646;28;20110;-77
2022/06/19 06:11:41;;;;;;;12.48;3.83;;;20.70;71.00;;;;;;5025178;28;20108;-77
2022/06/19 06:14:07;;;;;;;22.17;4.72;;;20.60;70.20;;;;;;5029404;28;20053;-76
2022/06/19 06:16:33;;;;;;;16.63;4.32;;;20.60;70.60;;;;;;5024396;28;20135;-76
2022/06/19 06:18:58;;;;;;;15.98;4.13;;;20.50;70.50;;;;;;5025431;28;20033;-75
2022/06/19 06:21:25;;;;;;;12.50;3.72;;;20.40;70.10;;;;;;5027293;28;20130;-74
2022/06/19 06:23:54;;;;;;;25.08;4.25;;;20.40;70.20;;;;;;5026732;28;20041;-75
2022/06/19 06:26:26;;;;;;;16.77;3.65;;;20.50;70.60;;;;;;5027402;28;20037;-74
2022/06/19 06:28:53;;;;;;;17.48;4.38;;;20.50;71.30;;;;;;5027132;28;20021;-75
2022/06/19 06:31:19;;;;;;;18.38;3.85;;;20.50;71.20;;;;;;5027100;28;20029;-76
2022/06/19 06:33:46;;;;;;;15.70;3.72;;;20.50;71.10;;;;;;5026486;28;20037;-74
2022/06/19 06:36:12;;;;;;;18.13;4.03;;;20.50;70.70;;;;;;5025834;28;20053;-75
2022/06/19 06:38:38;;;;;;;13.50;3.58;;;20.50;70.70;;;;;;5027678;28;20107;-75
2022/06/19 06:41:08;;;;;;;16.75;3.50;;;20.40;70.30;;;;;;5027356;28;20053;-76
2022/06/19 06:43:38;;;;;;;13.07;3.67;;;20.30;70.40;;;;;;5027428;28;20029;-76
2022/06/19 06:46:10;;;;;;;17.48;3.97;;;20.30;70.50;;;;;;5026958;28;20103;-77
2022/06/19 06:48:36;;;;;;;15.35;3.78;;;20.40;70.50;;;;;;5027104;28;20036;-77
2022/06/19 06:51:07;;;;;;;17.77;4.15;;;20.40;70.30;;;;;;5030536;28;20061;-77
2022/06/19 06:53:33;;;;;;;14.50;3.65;;;20.50;70.30;;;;;;5028295;28;20576;-75
2022/06/19 06:55:59;;;;;;;17.40;3.85;;;20.60;69.90;;;;;;5030629;28;20037;-75
2022/06/19 06:58:24;;;;;;;16.55;4.35;;;20.80;69.80;;;;;;5030320;28;20025;-75
2022/06/19 07:00:50;;;;;;;19.27;4.18;;;20.80;69.80;;;;;;5030106;28;20108;-75
2022/06/19 07:03:16;;;;;;;16.55;4.03;;;20.80;69.50;;;;;;5030101;28;20040;-75
2022/06/19 07:05:42;;;;;;;16.63;3.60;;;20.80;68.80;;;;;;5029507;28;20025;-75
2022/06/19 07:08:07;;;;;;;14.52;3.20;;;20.80;68.40;;;;;;5031421;28;20409;-76
2022/06/19 07:10:33;;;;;;;17.90;3.97;;;20.70;68.10;;;;;;5030082;28;20247;-76
2022/06/19 07:13:00;;;;;;;16.85;4.10;;;20.70;68.90;;;;;;5030176;28;20025;-76
2022/06/19 07:15:26;;;;;;;14.98;3.60;;;20.70;69.50;;;;;;5030322;28;20034;-79
2022/06/19 07:17:52;;;;;;;17.92;4.07;;;20.80;69.90;;;;;;5028581;28;20444;-77
2022/06/19 07:20:18;;;;;;;14.82;3.67;;;20.80;71.20;;;;;;5029511;28;20026;-79
2022/06/19 07:22:44;;;;;;;13.68;3.75;;;20.80;70.20;;;;;;5029718;28;20045;-78
2022/06/19 07:25:18;;;;;;;15.25;3.47;;;20.80;70.50;;;;;;5029686;28;20617;-77
2022/06/19 07:27:44;;;;;;;18.90;3.40;;;20.70;70.50;;;;;;5030108;28;20029;-77
2022/06/19 07:30:17;;;;;;;16.60;3.70;;;20.70;70.80;;;;;;5030204;28;20032;-75
2022/06/19 07:32:43;;;;;;;14.27;3.53;;;20.70;71.30;;;;;;5027881;28;20034;-75
2022/06/19 07:35:09;;;;;;;16.85;3.95;;;20.70;71.10;;;;;;5030207;28;20041;-79
2022/06/19 07:37:35;;;;;;;18.88;3.85;;;20.60;70.80;;;;;;5028397;28;20031;-75
2022/06/19 07:40:01;;;;;;;17.13;4.20;;;20.60;71.10;;;;;;5026901;28;20056;-75
2022/06/19 07:42:26;;;;;;;16.05;4.00;;;20.50;72.30;;;;;;5024687;28;20428;-75
2022/06/19 07:44:52;;;;;;;15.57;3.80;;;20.50;73.30;;;;;;5028313;28;20486;-77
2022/06/19 07:50:09;;;;;;;14.10;3.97;;;20.40;74.00;;;;;;5027268;28;20036;-79
2022/06/19 07:52:36;;;;;;;17.15;4.38;;;20.40;74.30;;;;;;5029160;28;20496;-79
2022/06/19 07:55:03;;;;;;;17.20;4.00;;;20.60;74.50;;;;;;5026859;28;20100;-81
2022/06/19 07:57:28;;;;;;;16.95;3.85;;;20.60;74.90;;;;;;5028616;28;20124;-80
2022/06/19 07:59:54;;;;;;;17.65;4.10;;;20.80;74.50;;;;;;5026889;28;20100;-89
2022/06/19 08:02:20;;;;;;;17.25;4.07;;;21.00;74.10;;;;;;5028060;28;20487;-82
2022/06/19 08:04:46;;;;;;;20.25;3.95;;;20.90;74.70;;;;;;5028609;28;20033;-79
2022/06/19 08:07:15;;;;;;;21.13;4.30;;;20.80;75.20;;;;;;5027580;28;20034;-82
2022/06/19 08:09:41;;;;;;;17.70;4.20;;;20.70;75.00;;;;;;5024103;28;20018;-84
2022/06/19 08:12:08;;;;;;;18.05;4.50;;;20.70;75.20;;;;;;5028502;28;20033;-80
2022/06/19 08:14:34;;;;;;;16.48;4.30;;;20.70;75.50;;;;;;5031538;28;20481;-80
2022/06/19 08:17:00;;;;;;;15.82;4.15;;;20.70;74.60;;;;;;5025561;28;20036;-79
2022/06/19 08:19:26;;;;;;;15.80;4.07;;;20.60;74.60;;;;;;5029869;28;20496;-82
2022/06/19 08:21:52;;;;;;;18.75;4.40;;;20.50;74.70;;;;;;5028065;28;20099;-81
2022/06/19 08:24:18;;;;;;;16.17;4.40;;;20.50;75.40;;;;;;5026655;28;20504;-80
2022/06/19 08:26:44;;;;;;;18.10;4.57;;;20.50;75.50;;;;;;5030954;28;20026;-85
2022/06/19 08:29:10;;;;;;;15.45;4.43;;;20.70;75.20;;;;;;5037768;28;20033;-83
2022/06/19 08:31:36;;;;;;;19.35;4.70;;;20.80;75.00;;;;;;5032866;28;20124;-86
2022/06/19 08:34:02;;;;;;;16.35;4.75;;;20.90;74.50;;;;;;5030458;28;20029;-89
2022/06/19 08:36:29;;;;;;;16.85;5.00;;;21.10;73.60;;;;;;5030868;28;20104;-82
2022/06/19 08:38:58;;;;;;;20.35;4.90;;;21.10;73.20;;;;;;5026417;28;20116;-82
2022/06/19 08:41:50;;;;;;;18.30;4.72;;;21.20;72.80;;;;;;5024798;28;20052;-79
2022/06/19 08:44:52;;;;;;;20.42;5.13;;;21.20;72.50;;;;;;5028395;28;20029;-77
2022/06/19 08:47:56;;;;;;;20.77;4.78;;;21.20;72.00;;;;;;5026738;28;20079;-77
2022/06/19 08:50:37;;;;;;;16.77;4.63;;;21.30;72.10;;;;;;5024447;28;20065;-77
2022/06/19 08:53:12;;;;;;;;;;;21.30;70.90;;;;;;5028048;28;20028;-77
2022/06/19 08:55:57;;;;;;;18.67;4.68;;;21.40;71.40;;;;;;5023474;28;19919;-77
2022/06/19 08:58:51;;;;;;;16.30;4.55;;;21.20;71.00;;;;;;5027061;28;20057;-76
2022/06/19 09:01:20;;;;;;;20.20;4.50;;;21.10;71.10;;;;;;5028196;28;20037;-76
2022/06/19 09:07:33;;;;;;;17.05;4.35;;;20.80;73.40;;;;;;5025082;28;20113;-76
2022/06/19 09:10:15;;;;;;;20.33;4.55;;;20.60;73.40;;;;;;5026705;28;20045;-79
2022/06/19 09:13:14;;;;;;;18.55;4.25;;;20.80;73.70;;;;;;5027347;28;20037;-77
2022/06/19 09:15:46;;;;;;;20.20;4.53;;;20.90;73.00;;;;;;5024767;28;20024;-78
2022/06/19 09:18:22;;;;;;;14.77;4.07;;;21.00;72.70;;;;;;5021795;28;20022;-77
2022/06/19 09:21:10;;;;;;;20.63;4.30;;;21.10;71.40;;;;;;5026708;28;20827;-80
2022/06/19 09:24:01;;;;;;;17.20;3.78;;;21.10;70.70;;;;;;5027194;28;20064;-84
2022/06/19 09:26:54;;;;;;;18.70;3.92;;;21.20;69.80;;;;;;5029890;28;20531;-79
2022/06/19 09:29:22;;;;;;;19.88;4.22;;;21.30;69.50;;;;;;5029832;28;20416;-78
2022/06/19 09:32:12;;;;;;;15.52;4.18;;;21.40;69.20;;;;;;5026044;28;20079;-79
2022/06/19 09:35:04;;;;;;;13.00;3.78;;;21.30;69.40;;;;;;5027779;28;20030;-82
2022/06/19 09:37:50;;;;;;;14.95;4.07;;;21.30;68.30;;;;;;5031287;28;20026;-77
2022/06/19 09:40:25;;;;;;;19.77;4.28;;;21.20;68.70;;;;;;5032999;28;20029;-82
2022/06/19 09:43:00;;;;;;;14.20;4.40;;;21.30;68.80;;;;;;5028023;28;20042;-82
2022/06/19 09:45:35;;;;;;;17.65;4.53;;;21.30;69.40;;;;;;5034929;28;20025;-77
2022/06/19 09:48:25;;;;;;;17.73;4.35;;;21.30;69.10;;;;;;5027628;28;20061;-77
2022/06/19 09:51:02;;;;;;;13.77;3.97;;;21.30;70.00;;;;;;5030252;28;20029;-75
2022/06/19 09:53:42;;;;;;;16.85;4.10;;;21.30;68.40;;;;;;5034437;28;20044;-83
2022/06/19 09:56:30;;;;;;;121.40;66.53;;;21.30;68.20;;;;;;5033473;28;20033;-83
2022/06/19 09:59:27;;;;;;;17.92;5.80;;;21.40;68.40;;;;;;5028204;28;20025;-79
2022/06/19 10:01:57;;;;;;;19.48;9.18;;;21.50;67.90;;;;;;5028654;28;20053;-80
2022/06/19 10:04:29;;;;;;;16.23;4.45;;;21.60;68.10;;;;;;5060014;28;20742;-82
2022/06/19 10:06:57;;;;;;;40.75;25.52;;;21.80;67.40;;;;;;5031033;28;20038;-79
2022/06/19 10:09:33;;;;;;;15.00;4.60;;;22.40;65.70;;;;;;5042070;28;20061;-79
2022/06/19 10:12:01;;;;;;;30.77;16.67;;;22.60;64.50;;;;;;5020800;28;20026;-84
2022/06/19 10:14:41;;;;;;;22.10;11.30;;;23.80;61.40;;;;;;5034431;28;20026;-88
2022/06/19 10:17:27;;;;;;;22.23;7.50;;;25.40;54.20;;;;;;5031344;28;20044;-80
2022/06/19 10:20:16;;;;;;;16.75;4.70;;;25.60;53.70;;;;;;5032741;28;20033;-79
2022/06/19 10:23:11;;;;;;;11.43;3.80;;;27.20;48.30;;;;;;5027532;28;20500;-80
2022/06/19 10:25:48;;;;;;;14.02;3.80;;;29.00;44.10;;;;;;5034569;28;20034;-86
2022/06/19 10:28:39;;;;;;;17.65;3.88;;;29.60;41.90;;;;;;5032175;28;20029;-84
2022/06/19 10:31:11;;;;;;;15.73;4.20;;;29.20;41.80;;;;;;5032102;28;20044;-86
2022/06/19 10:33:52;;;;;;;14.27;4.07;;;29.90;41.20;;;;;;5029083;28;20393;-79
2022/06/19 10:36:39;;;;;;;13.20;3.72;;;30.90;37.80;;;;;;5027086;28;20030;-81
2022/06/19 10:39:38;;;;;;;14.95;3.45;;;32.00;36.10;;;;;;5032357;28;20029;-84
2022/06/19 10:42:11;;;;;;;12.90;4.63;;;32.80;34.00;;;;;;5021084;28;20045;-81
2022/06/19 10:45:07;;;;;;;17.40;9.02;;;33.10;33.40;;;;;;5031069;28;20029;-83
2022/06/19 10:47:54;;;;;;;22.38;13.52;;;33.30;33.20;;;;;;5032409;28;20040;-76
2022/06/19 10:50:38;;;;;;;17.58;4.85;;;33.40;32.70;;;;;;5034079;28;20369;-81
2022/06/19 10:53:33;;;;;;;14.00;3.90;;;34.00;31.40;;;;;;5032517;28;20060;-78
2022/06/19 10:56:07;;;;;;;14.40;3.80;;;34.00;30.90;;;;;;5024995;28;20052;-91
2022/06/19 10:58:34;;;;;;;11.85;3.60;;;34.40;30.10;;;;;;5024460;28;20033;-86
2022/06/19 11:01:05;;;;;;;12.88;3.67;;;34.20;30.60;;;;;;5021516;28;20040;-79
2022/06/19 11:04:11;;;;;;;16.02;3.90;;;33.80;31.70;;;;;;5019378;28;20033;-90
2022/06/19 11:06:47;;;;;;;12.88;3.90;;;33.90;31.40;;;;;;5025116;28;20053;-80
2022/06/19 11:09:32;;;;;;;15.07;4.20;;;32.90;32.70;;;;;;5027269;28;20049;-87
2022/06/19 11:12:07;;;;;;;16.45;4.00;;;32.20;34.50;;;;;;5028543;28;20030;-92
2022/06/19 11:14:44;;;;;;;15.43;4.20;;;31.10;36.00;;;;;;5028466;28;20532;-86
2022/06/19 11:17:35;;;;;;;15.43;4.03;;;30.30;38.20;;;;;;5031482;28;20032;-83
2022/06/19 11:20:19;;;;;;;16.40;4.65;;;29.60;40.00;;;;;;5026859;28;20052;-89
2022/06/19 11:22:47;;;;;;;16.08;4.57;;;28.70;42.00;;;;;;5027520;28;20127;-87
2022/06/19 11:25:35;;;;;;;15.07;4.40;;;27.90;43.40;;;;;;5021649;28;20690;-82
2022/06/19 11:28:05;;;;;;;15.35;3.92;;;27.10;46.60;;;;;;5024729;28;20065;-85
2022/06/19 11:30:50;;;;;;;15.27;4.45;;;26.80;48.30;;;;;;5025806;28;20026;-85
2022/06/19 11:33:32;;;;;;;16.00;4.30;;;26.50;49.50;;;;;;5026754;28;20073;-82
2022/06/19 11:36:02;;;;;;;12.43;4.20;;;26.40;50.60;;;;;;5025236;28;20021;-80
2022/06/19 11:38:46;;;;;;;14.70;4.55;;;26.30;51.00;;;;;;5030666;28;20037;-79
2022/06/19 11:41:21;;;;;;;14.60;4.38;;;26.00;52.10;;;;;;5031445;28;20045;-79
2022/06/19 11:44:11;;;;;;;18.65;4.45;;;25.60;52.50;;;;;;5026862;28;20095;-85
2022/06/19 11:46:52;;;;;;;14.13;4.55;;;25.30;53.90;;;;;;5026753;28;20130;-86
2022/06/19 11:49:36;;;;;;;12.32;4.20;;;25.10;54.80;;;;;;5026679;28;20050;-78
2022/06/19 11:52:10;;;;;;;12.50;4.50;;;25.00;55.70;;;;;;5029340;28;20025;-80
2022/06/19 11:54:43;;;;;;;14.43;4.57;;;24.90;56.00;;;;;;5029075;28;20060;-80
2022/06/19 11:57:30;;;;;;;14.38;4.50;;;24.80;56.20;;;;;;5028878;28;20617;-88
2022/06/19 11:59:58;;;;;;;13.15;4.43;;;24.70;56.60;;;;;;5030374;28;21251;-79
2022/06/19 12:02:25;;;;;;;15.23;4.40;;;24.60;57.50;;;;;;5029224;28;20094;-79
2022/06/19 12:04:58;;;;;;;12.20;4.30;;;24.60;57.90;;;;;;5029269;28;20017;-85
2022/06/19 12:07:28;;;;;;;13.10;4.68;;;24.60;58.00;;;;;;5030533;28;20112;-78
2022/06/19 12:10:20;;;;;;;14.07;4.50;;;24.60;58.30;;;;;;5029813;28;20026;-78
2022/06/19 12:12:56;;;;;;;8.60;4.28;;;24.60;58.70;;;;;;5027930;28;20256;-83
2022/06/19 12:15:28;;;;;;;14.95;4.72;;;24.50;58.10;;;;;;5031554;28;20071;-85
2022/06/19 12:18:00;;;;;;;14.65;4.72;;;24.60;58.10;;;;;;5032538;28;20049;-86
2022/06/19 12:20:31;;;;;;;12.32;4.57;;;24.50;57.90;;;;;;5034144;28;20029;-77
2022/06/19 12:23:02;;;;;;;15.55;4.90;;;24.50;58.10;;;;;;5035610;28;20043;-78
2022/06/19 12:25:28;;;;;;;12.27;4.88;;;24.50;58.00;;;;;;5027470;28;20053;-89
2022/06/19 12:28:05;;;;;;;15.57;4.32;;;24.40;58.40;;;;;;5029568;28;20611;-87
2022/06/19 12:30:41;;;;;;;11.45;4.40;;;24.40;59.80;;;;;;5027425;28;20028;-88
2022/06/19 12:33:22;;;;;;;11.90;4.70;;;24.30;59.10;;;;;;5031754;28;20393;-86
2022/06/19 12:35:49;;;;;;;13.40;4.90;;;24.30;59.20;;;;;;5039097;28;20484;-79
2022/06/19 12:38:17;;;;;;;10.23;4.68;;;24.30;59.10;;;;;;5023532;28;20048;-81
2022/06/19 12:41:05;;;;;;;16.50;5.07;;;24.40;59.30;;;;;;5037135;28;20102;-78
2022/06/19 12:43:53;;;;;;;11.02;4.70;;;24.40;59.20;;;;;;5021313;28;20044;-79
2022/06/19 12:46:35;;;;;;;13.77;5.20;;;24.40;59.40;;;;;;5030236;28;20040;-83
2022/06/19 12:49:15;;;;;;;12.02;4.90;;;24.50;59.40;;;;;;5026739;28;20027;-83
2022/06/19 12:51:51;;;;;;;14.13;5.00;;;24.60;59.20;;;;;;5027259;28;20547;-83
2022/06/19 12:54:54;;;;;;;11.25;5.00;;;24.70;59.20;;;;;;5025968;28;20030;-82
2022/06/19 12:57:31;;;;;;;15.70;5.47;;;24.90;58.20;;;;;;5023366;28;20036;-82
2022/06/19 13:00:18;;;;;;;13.30;5.25;;;25.10;58.20;;;;;;5012162;28;20381;-83
2022/06/19 13:02:49;;;;;;;9.02;4.68;;;25.20;58.00;;;;;;5028127;28;20041;-84
2022/06/19 13:05:31;;;;;;;11.55;4.65;;;25.40;57.30;;;;;;5029156;28;20072;-82
2022/06/19 13:08:13;;;;;;;12.55;5.18;;;25.50;56.90;;;;;;5027863;28;20036;-82
2022/06/19 13:10:59;;;;;;;12.90;4.93;;;25.70;56.70;;;;;;5025031;28;20415;-83